Aérodrome :
LOGIN :

S'inscrire | Disclaimer

   EN    FR    IT 

 










Légende :    VFR   VFR Marginal   IFR   IFR Intensif   IFR Très Intensif
Visi : 
Plafond : 
>= 8 km
>= 3000ft
5 à 8 km
1000 à 3000 ft
1500m à 5 km
500 à 1000 ft
800 à 1500m
200 à 500 ft
< 800m
< 200 ft
Symboles :   Orages  Brouillard  Fortes neiges  Fortes précipitations  Vent > 20 kt
SIGMETs :   Divers  Orages  Givrage  Turbulence  Onde Orograph.  Cendres Volcan.







- Altitude de l'aérodrome : 74 ft
- Code IATA : NDZ


ETMN - Cuxhaven Nordholz Sea AB

DERNIER METAR :
  • 131820Z 20009KT 6000 BKN003 02/01 Q0989 YLO YLO BECMG AMB

METARs EXPIRÉS :
  • 131720Z 20011KT 8000 BKN004 01/01 Q0990 YLO YLO TEMPO AMB
  • 131632Z 21010KT 7000 BKN004 01/00 Q0991 YLO YLO
  • 131620Z 20010KT 5000 -SNRA BR BKN004 01/00 Q0991 YLO YLO
  • 131612Z 20012KT 5000 -SNRA BR BKN005 01/00 Q0992 YLO YLO
  • 131543Z 20011KT 5000 -DZRA BR BKN005 OVC007 01/00 Q0992 YLO YLO

TAF TAF ETMN
Valide du 13 à 18h jusqu'au 14 à 03h UTC


131725Z 1318/1403 18015G25KT 5000 -RADZ BKN004 BKN008 OVC010
TEMPO 1318/1320 19015G25KT 2000 -DZ BKN002 OVC003
PROB30 1320/1403 19015G25KT 1500 DZ OVC001
Pas de NOTAMs connus pour ce terrain.



MET'MAP, la Météo Aéronautique d'un coup d'oeil ! - Copyright ORBIFLY Décembre 2007 - Disclaimer

ORBIFLY MET'MAP TEAM :

Programmation & Développement : Alexandra Zaïnal
Conception & Développement : Baudouin d'Aumeries
Co-Programmation & Développement : Marc-Olivier Méhu
Soutien technique & logistique : Manuel Goepfert

Contact : metmap@orbifly.com




SOURCES & CREDITS :

   NOAA